Time;durP1;ratioP1;P1;durP2;ratioP2;P2;SDS_P1;SDS_P2;PMS_P1;PMS_P2;Temp;Humidity;BMP_temperature;BMP_pressure;BME280_temperature;BME280_humidity;BME280_pressure;Samples;Min_cycle;Max_cycle;Signal;HPM_P1;HPM_P2
2021/12/27 00:01:23;;;;;;;;;5.67;5.67;;;;;10.59;93.31;99655.75;5099964;27;45282;-74
2021/12/27 00:03:51;;;;;;;;;5.00;5.00;;;;;10.54;93.34;99645.72;5100118;27;45248;-73
2021/12/27 00:06:17;;;;;;;;;5.67;5.67;;;;;10.63;93.18;99659.66;5100110;27;45329;-73
2021/12/27 00:08:43;;;;;;;;;6.00;4.67;;;;;10.53;93.21;99637.97;5099920;27;46199;-74
2021/12/27 00:11:10;;;;;;;;;6.00;6.00;;;;;10.63;93.60;99651.69;5098692;27;45285;-74
2021/12/27 00:13:36;;;;;;;;;5.67;5.67;;;;;10.55;93.54;99622.63;5100191;27;45387;-74
2021/12/27 00:16:02;;;;;;;;;4.00;4.00;;;;;10.67;93.20;99644.94;5099778;27;45422;-74
2021/12/27 00:18:27;;;;;;;;;5.00;5.00;;;;;10.69;92.87;99634.91;5099869;27;46554;-74
2021/12/27 00:20:54;;;;;;;;;4.00;3.00;;;;;10.58;92.89;99606.28;5098829;27;45255;-74
2021/12/27 00:23:19;;;;;;;;;5.50;5.50;;;;;10.59;92.97;99613.22;5100152;27;45262;-74
2021/12/27 00:25:45;;;;;;;;;5.00;5.00;;;;;10.67;92.84;99629.00;5099869;27;45317;-74
2021/12/27 00:28:10;;;;;;;;;5.33;5.33;;;;;10.61;93.23;99608.53;5099990;27;46441;-74
2021/12/27 00:30:38;;;;;;;;;4.00;4.00;;;;;10.67;93.00;99617.53;5099818;27;45274;-74
2021/12/27 00:33:03;;;;;;;;;5.33;5.33;;;;;10.64;92.23;99618.75;5098522;27;45275;-74
2021/12/27 00:35:32;;;;;;;;;4.00;4.00;;;;;10.67;91.56;99615.72;5099737;27;45459;-75
2021/12/27 00:37:58;;;;;;;;;5.00;4.00;;;;;10.71;91.80;99610.78;5111132;27;47176;-74
2021/12/27 00:40:24;;;;;;;;;5.00;4.00;;;;;10.73;91.73;99614.91;5119047;27;45300;-74
2021/12/27 00:42:50;;;;;;;;;3.67;3.67;;;;;10.70;91.40;99595.88;5120444;27;45282;-74
2021/12/27 00:45:16;;;;;;;;;7.33;6.33;;;;;10.70;91.64;99599.34;5120221;27;45404;-74
2021/12/27 00:47:41;;;;;;;;;6.67;6.00;;;;;10.64;91.49;99586.88;5119815;27;47201;-74
2021/12/27 00:50:08;;;;;;;;;5.00;4.00;;;;;10.78;91.47;99611.63;5120258;27;45355;-74
2021/12/27 00:52:35;;;;;;;;;7.67;5.00;;;;;10.71;91.48;99595.66;5120227;27;45271;-74
2021/12/27 00:55:02;;;;;;;;;6.00;4.00;;;;;10.71;91.47;99603.66;5122313;27;45756;-74
2021/12/27 00:57:27;;;;;;;;;4.67;4.67;;;;;10.73;91.29;99601.63;5122056;27;46256;-74
2021/12/27 00:59:52;;;;;;;;;6.00;6.00;;;;;10.77;91.37;99614.50;5122182;27;45165;-74
2021/12/27 01:02:18;;;;;;;;;3.00;3.00;;;;;10.80;91.11;99614.06;5122148;27;45292;-74
2021/12/27 01:04:43;;;;;;;;;3.33;3.33;;;;;10.76;91.32;99604.88;5121987;27;45971;-75
2021/12/27 01:07:09;;;;;;;;;3.00;2.33;;;;;10.72;91.18;99597.28;5123501;27;45277;-75
2021/12/27 01:09:49;;;;;;;;;5.00;4.67;;;;;10.81;91.38;99607.75;5122150;27;45560;-74
2021/12/27 01:15:32;;;;;;;;;4.00;4.00;;;;;10.66;91.18;99576.88;5123148;27;45233;-74
2021/12/27 01:17:56;;;;;;;;;5.00;3.00;;;;;10.82;91.35;99590.78;5122733;27;45286;-75
2021/12/27 01:20:23;;;;;;;;;4.33;4.33;;;;;10.83;91.11;99601.19;5123225;27;45210;-74
2021/12/27 01:22:50;;;;;;;;;2.67;2.67;;;;;10.85;91.06;99598.34;5123473;27;45235;-75
2021/12/27 01:25:16;;;;;;;;;4.67;2.67;;;;;10.81;91.38;99584.63;5123105;27;45502;-74
2021/12/27 01:27:43;;;;;;;;;5.00;4.00;;;;;10.73;91.17;99569.72;5123156;27;46101;-74
2021/12/27 01:30:12;;;;;;;;;3.33;3.33;;;;;10.82;91.26;99580.97;5123123;27;45357;-74
2021/12/27 01:32:41;;;;;;;;;4.00;4.00;;;;;10.78;91.18;99585.06;5123028;27;45280;-74
2021/12/27 01:35:06;;;;;;;;;3.33;3.33;;;;;10.77;91.22;99566.66;5102647;27;46029;-74
2021/12/27 01:37:32;;;;;;;;;5.00;4.00;;;;;10.80;90.98;99564.41;5103296;27;45278;-74
2021/12/27 01:39:58;;;;;;;;;3.00;2.67;;;;;10.85;90.97;99580.56;5121640;27;45319;-74
2021/12/27 01:42:23;;;;;;;;;5.00;5.00;;;;;10.76;90.89;99560.50;5123074;27;45449;-73
2021/12/27 01:44:49;;;;;;;;;8.67;5.67;;;;;10.77;90.94;99561.34;5122892;27;45451;-74
2021/12/27 01:47:14;;;;;;;;;6.00;4.00;;;;;10.81;91.19;99560.69;5122616;27;46315;-74
2021/12/27 01:49:40;;;;;;;;;5.67;4.67;;;;;10.77;91.26;99564.00;5122851;27;45729;-74
2021/12/27 01:52:06;;;;;;;;;4.00;4.00;;;;;10.79;91.14;99560.09;5121634;27;45924;-74
2021/12/27 01:54:32;;;;;;;;;3.00;3.00;;;;;10.84;91.17;99559.50;5122461;27;45481;-73
2021/12/27 01:56:58;;;;;;;;;7.00;6.00;;;;;10.71;90.80;99537.22;5121228;27;48512;-74
2021/12/27 01:59:23;;;;;;;;;6.67;5.33;;;;;10.87;90.98;99561.75;5122502;27;45245;-74
2021/12/27 02:01:48;;;;;;;;;6.67;5.67;;;;;10.84;90.97;99547.00;5122548;27;45198;-74
2021/12/27 02:04:14;;;;;;;;;6.00;5.00;;;;;10.85;91.14;99548.66;5119840;27;46643;-74
2021/12/27 02:06:39;;;;;;;;;5.00;4.00;;;;;10.89;90.63;99554.38;5122567;27;45207;-74
2021/12/27 02:09:04;;;;;;;;;3.33;2.00;;;;;10.85;90.82;99542.53;5122544;27;45145;-74
2021/12/27 02:11:34;;;;;;;;;4.00;3.33;;;;;10.91;90.66;99554.16;5122725;27;45230;-74
2021/12/27 02:14:04;;;;;;;;;3.00;3.00;;;;;10.88;90.75;99549.25;5121005;27;46277;-74
2021/12/27 02:16:30;;;;;;;;;2.00;2.00;;;;;10.84;90.59;99554.97;5120580;27;47457;-74
2021/12/27 02:18:55;;;;;;;;;2.00;2.00;;;;;10.85;91.18;99556.63;5122269;27;45243;-74
2021/12/27 02:21:22;;;;;;;;;4.33;4.00;;;;;10.91;90.81;99564.78;5122612;27;45137;-74
2021/12/27 02:23:49;;;;;;;;;3.00;3.00;;;;;10.89;91.20;99562.34;5122286;27;45323;-74
2021/12/27 02:26:16;;;;;;;;;2.67;2.67;;;;;10.90;91.20;99556.03;5122047;27;46300;-74
2021/12/27 02:28:41;;;;;;;;;2.33;2.00;;;;;10.90;91.23;99556.03;5122029;27;45351;-73
2021/12/27 02:31:08;;;;;;;;;2.00;2.00;;;;;10.85;91.24;99543.34;5122064;27;45346;-73
2021/12/27 02:33:37;;;;;;;;;2.33;2.33;;;;;10.92;90.97;99556.63;5122216;27;45491;-74
2021/12/27 02:36:05;;;;;;;;;5.00;4.00;;;;;10.91;91.18;99547.00;5121861;27;45501;-74
2021/12/27 02:38:33;;;;;;;;;4.00;3.33;;;;;10.87;91.19;99535.16;5102700;27;45364;-73
2021/12/27 02:40:59;;;;;;;;;6.67;6.67;;;;;10.92;90.97;99539.88;5101412;27;45259;-74
2021/12/27 02:43:27;;;;;;;;;5.33;5.00;;;;;10.93;91.04;99539.63;5101210;27;45216;-74
2021/12/27 02:46:05;;;;;;;;;5.00;4.00;;;;;10.93;91.25;99538.84;5101034;27;45328;-74
2021/12/27 02:48:40;;;;;;;;;5.00;3.00;;;;;10.85;90.97;99519.44;5101223;27;45329;-75
2021/12/27 02:51:06;;;;;;;;;6.00;6.00;;;;;10.91;90.83;99532.91;5099880;27;45276;-74
2021/12/27 02:53:31;;;;;;;;;4.67;4.67;;;;;10.92;90.97;99529.25;5099587;27;46087;-75
2021/12/27 02:55:59;;;;;;;;;5.00;5.00;;;;;10.94;90.94;99537.81;5099666;27;47154;-74
2021/12/27 02:58:25;;;;;;;;;3.67;3.67;;;;;10.84;90.84;99519.63;5100869;27;45889;-74
2021/12/27 03:00:52;;;;;;;;;6.00;4.33;;;;;10.92;91.02;99534.56;5101074;27;45222;-74
2021/12/27 03:03:18;;;;;;;;;1.00;1.00;;;;;10.84;90.80;99514.31;5100825;27;45390;-74
2021/12/27 03:05:45;;;;;;;;;5.00;3.67;;;;;10.93;90.81;99517.56;5099485;27;47040;-74
2021/12/27 03:08:14;;;;;;;;;4.00;3.00;;;;;10.85;90.72;99507.97;5101027;27;45336;-75
2021/12/27 03:10:41;;;;;;;;;4.67;4.00;;;;;10.91;90.99;99517.78;5101110;27;45348;-75
2021/12/27 03:13:07;;;;;;;;;5.33;4.00;;;;;10.91;90.74;99515.13;5099545;27;46288;-74
2021/12/27 03:15:32;;;;;;;;;6.00;4.00;;;;;10.85;90.76;99502.66;5100209;27;46303;-74
2021/12/27 03:17:58;;;;;;;;;5.00;3.67;;;;;10.84;90.67;99498.38;5100597;27;45258;-75
2021/12/27 03:20:26;;;;;;;;;6.00;3.00;;;;;10.90;90.55;99508.19;5101018;27;45263;-74
2021/12/27 03:22:53;;;;;;;;;5.33;4.33;;;;;10.84;90.91;99498.38;5100961;27;45152;-74
2021/12/27 03:25:22;;;;;;;;;5.67;3.33;;;;;10.87;90.80;99505.94;5099309;27;47974;-75
2021/12/27 03:27:48;;;;;;;;;6.67;4.00;;;;;10.88;90.57;99509.38;5100674;27;45332;-74
2021/12/27 03:30:21;;;;;;;;;3.67;3.33;;;;;10.80;90.84;99497.13;5099381;27;45395;-74
2021/12/27 03:32:47;;;;;;;;;4.67;4.67;;;;;10.85;90.77;99508.78;5100242;27;47499;-74
2021/12/27 03:35:17;;;;;;;;;7.00;5.00;;;;;10.81;90.78;99501.44;5100591;27;45354;-76
2021/12/27 03:37:47;;;;;;;;;4.00;4.00;;;;;10.84;90.80;99501.03;5111452;27;45352;-74
2021/12/27 03:40:16;;;;;;;;;7.00;5.33;;;;;10.83;90.65;99494.88;5120000;27;45374;-74
2021/12/27 03:42:41;;;;;;;;;6.00;4.00;;;;;10.71;90.80;99477.91;5119718;27;45329;-74
2021/12/27 03:45:09;;;;;;;;;4.00;4.00;;;;;10.76;90.80;99482.63;5119583;27;47973;-74
2021/12/27 03:47:35;;;;;;;;;4.00;4.00;;;;;10.69;90.91;99474.66;5120952;27;45325;-74
2021/12/27 03:50:01;;;;;;;;;3.67;3.00;;;;;10.77;90.79;99477.09;5121143;27;45312;-75
2021/12/27 03:52:26;;;;;;;;;6.00;6.00;;;;;10.68;90.76;99470.34;5120823;27;45217;-74
2021/12/27 03:54:51;;;;;;;;;3.67;3.67;;;;;10.72;90.64;99475.06;5119489;27;48064;-73
2021/12/27 03:57:17;;;;;;;;;6.00;5.67;;;;;10.70;90.71;99463.84;5119541;27;45414;-75
2021/12/27 04:02:09;;;;;;;;;6.67;4.00;;;;;10.72;90.76;99475.06;5120691;27;45334;-74
2021/12/27 04:04:35;;;;;;;;;4.00;3.67;;;;;10.65;90.84;99460.97;5119217;27;47704;-74
2021/12/27 04:07:00;;;;;;;;;4.67;4.00;;;;;10.64;90.85;99456.69;5120691;27;45308;-74
2021/12/27 04:09:27;;;;;;;;;7.00;6.33;;;;;10.65;91.19;99457.50;5120953;27;45279;-73
2021/12/27 04:11:52;;;;;;;;;5.00;5.00;;;;;10.60;90.89;99448.28;5120744;27;45247;-75
2021/12/27 04:14:17;;;;;;;;;4.00;3.00;;;;;10.58;90.93;99446.88;5120484;27;45731;-74
2021/12/27 04:16:43;;;;;;;;;6.00;5.00;;;;;10.66;90.74;99459.97;5119129;27;45252;-74
2021/12/27 04:19:08;;;;;;;;;6.33;5.00;;;;;10.64;90.69;99445.22;5120923;27;45192;-74
2021/12/27 04:21:34;;;;;;;;;5.00;5.00;;;;;10.59;90.80;99443.19;5120508;27;45474;-73
2021/12/27 04:23:59;;;;;;;;;3.00;3.00;;;;;10.54;90.88;99433.16;5120540;27;45283;-73
2021/12/27 04:26:25;;;;;;;;;5.67;5.67;;;;;10.66;90.77;99456.47;5120527;27;45220;-74
2021/12/27 04:28:51;;;;;;;;;5.00;5.00;;;;;10.62;90.67;99448.09;5123843;27;45293;-74
2021/12/27 04:31:17;;;;;;;;;4.33;4.00;;;;;10.65;91.08;99454.84;5123903;27;45403;-75
2021/12/27 04:33:43;;;;;;;;;4.67;4.67;;;;;10.59;91.01;99443.19;5123865;27;45282;-73
2021/12/27 04:36:08;;;;;;;;;3.67;3.67;;;;;10.66;90.87;99449.34;5122711;27;45313;-73
2021/12/27 04:38:35;;;;;;;;;5.00;5.00;;;;;10.65;90.94;99453.00;5105424;27;45262;-74
2021/12/27 04:41:02;;;;;;;;;7.33;7.00;;;;;10.64;90.96;99456.69;5102014;27;47147;-74
2021/12/27 04:43:28;;;;;;;;;10.33;7.00;;;;;10.62;91.24;99453.41;5101733;27;48739;-75
2021/12/27 04:45:54;;;;;;;;;8.33;5.00;;;;;10.64;90.94;99450.53;5102954;27;45281;-74
2021/12/27 04:48:21;;;;;;;;;5.67;5.67;;;;;10.56;90.89;99448.91;5103410;27;45294;-74
2021/12/27 04:50:47;;;;;;;;;7.00;6.00;;;;;10.64;90.99;99461.16;5102983;27;45283;-74
2021/12/27 04:53:13;;;;;;;;;6.33;6.33;;;;;10.65;90.71;99465.47;5102861;27;46300;-74
2021/12/27 04:55:38;;;;;;;;;5.33;5.33;;;;;10.66;90.71;99464.44;5103147;27;45498;-74
2021/12/27 04:58:07;;;;;;;;;4.33;4.33;;;;;10.60;90.80;99455.47;5101674;27;45394;-74
2021/12/27 05:00:33;;;;;;;;;7.67;6.67;;;;;10.58;90.91;99452.19;5101660;27;47306;-73
2021/12/27 05:02:58;;;;;;;;;6.00;4.00;;;;;10.64;90.94;99467.31;5102440;27;46096;-74
2021/12/27 05:05:25;;;;;;;;;6.00;5.67;;;;;10.46;91.11;99436.88;5102968;27;45218;-74
2021/12/27 05:07:51;;;;;;;;;6.67;5.33;;;;;10.64;91.19;99469.97;5101625;27;45300;-74
2021/12/27 05:10:17;;;;;;;;;7.67;4.67;;;;;10.50;90.81;99449.75;5102720;27;45477;-74
2021/12/27 05:12:44;;;;;;;;;7.00;7.00;;;;;10.64;90.88;99485.09;5102842;27;45333;-74
2021/12/27 05:15:10;;;;;;;;;8.67;7.00;;;;;10.56;90.95;99470.97;5102527;27;45305;-74
2021/12/27 05:17:36;;;;;;;;;7.00;6.00;;;;;10.57;90.59;99471.81;5101113;27;45355;-74
2021/12/27 05:20:04;;;;;;;;;7.33;5.00;;;;;10.60;90.85;99477.50;5101320;27;45958;-75
2021/12/27 05:22:31;;;;;;;;;6.67;6.00;;;;;10.62;90.80;99479.19;5102646;27;45294;-74
2021/12/27 05:24:56;;;;;;;;;5.33;5.00;;;;;10.62;90.63;99489.81;5101126;27;45313;-74
2021/12/27 05:27:22;;;;;;;;;7.00;6.00;;;;;10.60;90.81;99480.19;5102614;27;45287;-75
2021/12/27 05:29:47;;;;;;;;;6.67;6.67;;;;;10.57;90.67;99479.78;5102552;27;45276;-73
2021/12/27 05:32:12;;;;;;;;;6.67;6.67;;;;;10.54;90.90;99467.72;5100894;27;46989;-74
2021/12/27 05:34:38;;;;;;;;;6.00;4.67;;;;;10.53;90.88;99465.28;5102603;27;45374;-74
2021/12/27 05:37:04;;;;;;;;;11.00;9.00;;;;;10.60;90.81;99469.53;5106510;27;45448;-73
2021/12/27 05:39:29;;;;;;;;;6.33;6.00;;;;;10.62;90.71;99472.00;5122767;27;45308;-74
2021/12/27 05:41:54;;;;;;;;;6.33;5.00;;;;;10.57;90.68;99469.16;5121513;27;48320;-75
2021/12/27 05:44:20;;;;;;;;;8.33;7.67;;;;;10.50;90.82;99449.75;5122855;27;45270;-74
2021/12/27 05:46:45;;;;;;;;;6.00;6.00;;;;;10.54;90.47;99453.63;5122860;27;45312;-74
2021/12/27 05:49:10;;;;;;;;;6.33;6.33;;;;;10.61;90.69;99462.41;5122987;27;45307;-74
2021/12/27 05:51:36;;;;;;;;;9.00;9.00;;;;;10.57;90.41;99454.00;5122749;27;46199;-73
2021/12/27 05:54:05;;;;;;;;;9.67;7.00;;;;;10.43;90.63;99429.28;5122728;27;45163;-74
2021/12/27 05:56:30;;;;;;;;;7.67;7.67;;;;;10.51;90.88;99433.59;5122796;27;45171;-74
2021/12/27 05:58:56;;;;;;;;;11.33;9.00;;;;;10.47;90.73;99427.88;5122653;27;45209;-74
2021/12/27 06:01:21;;;;;;;;;10.00;10.00;;;;;10.48;90.51;99418.06;5121179;27;46993;-74
2021/12/27 06:03:46;;;;;;;;;9.33;9.33;;;;;10.51;90.63;99417.66;5122531;27;45260;-74
2021/12/27 06:06:14;;;;;;;;;10.67;10.67;;;;;10.45;90.56;99407.84;5121401;27;45325;-74
2021/12/27 06:08:40;;;;;;;;;10.33;10.33;;;;;10.38;90.77;99394.53;5121153;27;46250;-74
2021/12/27 06:11:05;;;;;;;;;13.00;8.33;;;;;10.45;90.81;99397.22;5122252;27;46121;-74
2021/12/27 06:13:30;;;;;;;;;10.00;8.00;;;;;10.45;90.56;99389.25;5122396;27;45244;-74
2021/12/27 06:15:56;;;;;;;;;10.33;10.00;;;;;10.36;90.50;99378.81;5122349;27;45299;-74
2021/12/27 06:18:21;;;;;;;;;10.33;8.33;;;;;10.25;90.45;99350.25;5122314;27;45388;-74
2021/12/27 06:20:47;;;;;;;;;9.00;9.00;;;;;10.39;90.62;99368.81;5122455;27;45254;-74
2021/12/27 06:23:12;;;;;;;;;9.33;6.00;;;;;10.38;90.74;99359.22;5122405;27;45284;-74
2021/12/27 06:25:38;;;;;;;;;12.67;10.33;;;;;10.36;90.61;99354.91;5122398;27;45187;-74
2021/12/27 06:28:03;;;;;;;;;9.67;8.33;;;;;10.27;90.63;99331.44;5122183;27;45173;-75
2021/12/27 06:30:29;;;;;;;;;9.00;9.00;;;;;10.31;90.56;99336.13;5122088;27;45195;-75
2021/12/27 06:32:54;;;;;;;;;9.00;9.00;;;;;10.19;90.37;99306.75;5121950;27;45248;-74
2021/12/27 06:35:20;;;;;;;;;7.00;6.33;;;;;10.21;90.73;99307.34;5120861;27;45396;-74
2021/12/27 06:37:47;;;;;;;;;10.00;10.00;;;;;10.28;90.55;99299.38;5110482;27;45783;-74
2021/12/27 06:40:15;;;;;;;;;6.33;6.33;;;;;10.26;90.69;99290.78;5101422;27;45380;-75
2021/12/27 06:42:40;;;;;;;;;7.00;6.33;;;;;10.17;90.47;99268.97;5101396;27;45364;-74
2021/12/27 06:45:06;;;;;;;;;7.67;6.67;;;;;10.23;90.39;99273.44;5099909;27;45320;-74
2021/12/27 06:47:31;;;;;;;;;6.00;5.67;;;;;10.23;90.49;99276.09;5099780;27;46337;-74
2021/12/27 06:49:57;;;;;;;;;8.00;7.00;;;;;10.13;90.19;99256.31;5100375;27;45320;-73
2021/12/27 06:52:24;;;;;;;;;6.33;4.00;;;;;10.17;90.25;99258.34;5099726;27;45900;-73
2021/12/27 06:54:49;;;;;;;;;6.33;5.33;;;;;10.15;90.33;99248.97;5100083;27;45208;-74
2021/12/27 06:57:18;;;;;;;;;5.00;4.67;;;;;10.10;90.41;99231.00;5099621;27;46128;-74
2021/12/27 06:59:44;;;;;;;;;7.00;6.00;;;;;10.14;90.65;99248.13;5099684;27;48228;-74
2021/12/27 07:02:09;;;;;;;;;7.33;5.00;;;;;10.07;90.07;99234.06;5099479;27;45772;-75
2021/12/27 07:04:35;;;;;;;;;7.33;7.33;;;;;10.05;90.49;99244.88;5099491;27;45366;-75
2021/12/27 07:07:00;;;;;;;;;5.67;5.00;;;;;10.11;90.05;99251.19;5101026;27;45380;-74
2021/12/27 07:09:25;;;;;;;;;5.33;5.33;;;;;10.11;90.11;99251.19;5099615;27;47640;-75
2021/12/27 07:11:51;;;;;;;;;7.00;6.67;;;;;10.06;90.25;99245.72;5100955;27;45317;-75
2021/12/27 07:14:16;;;;;;;;;5.00;5.00;;;;;10.06;90.08;99245.72;5100929;27;45407;-74
2021/12/27 07:16:41;;;;;;;;;5.33;5.33;;;;;10.00;90.24;99231.44;5099120;27;46149;-74
2021/12/27 07:19:07;;;;;;;;;7.33;5.67;;;;;10.08;89.98;99247.13;5100755;27;46088;-74
2021/12/27 07:21:32;;;;;;;;;6.00;6.00;;;;;10.04;89.93;99242.44;5100843;27;45225;-74
2021/12/27 07:23:57;;;;;;;;;4.33;4.33;;;;;9.95;90.05;99226.75;5099607;27;45241;-75
2021/12/27 07:26:23;;;;;;;;;5.00;5.00;;;;;10.06;90.14;99249.16;5100732;27;45478;-74
2021/12/27 07:28:48;;;;;;;;;5.33;5.33;;;;;10.06;90.15;99264.28;5100251;27;45265;-74
2021/12/27 07:31:14;;;;;;;;;5.00;5.00;;;;;10.02;89.98;99253.25;5092048;27;45259;-74
2021/12/27 07:33:39;;;;;;;;;4.67;4.67;;;;;9.96;89.95;99246.13;5082255;27;45496;-74
2021/12/27 07:36:07;;;;;;;;;6.00;5.00;;;;;10.02;90.09;99260.41;5095722;27;46339;-74
2021/12/27 07:38:34;;;;;;;;;5.00;5.00;;;;;10.00;90.10;99260.63;5116983;27;46110;-74
2021/12/27 07:40:59;;;;;;;;;7.67;6.00;;;;;9.97;90.02;99248.56;5120987;27;45323;-74
2021/12/27 07:43:25;;;;;;;;;6.00;5.00;;;;;9.94;90.20;99251.63;5119691;27;45292;-74
2021/12/27 07:45:50;;;;;;;;;6.33;5.00;;;;;9.96;90.25;99241.63;5120877;27;45354;-75
2021/12/27 07:48:15;;;;;;;;;5.67;5.67;;;;;9.90;90.18;99231.03;5119501;27;47606;-74
2021/12/27 07:50:41;;;;;;;;;6.67;5.67;;;;;9.98;90.04;99250.22;5121033;27;45261;-74
2021/12/27 07:53:06;;;;;;;;;4.67;4.67;;;;;9.97;90.19;99256.53;5120906;27;45395;-75
2021/12/27 07:55:32;;;;;;;;;7.33;6.67;;;;;9.83;89.88;99237.19;5119548;27;46263;-74
2021/12/27 07:57:58;;;;;;;;;6.00;5.67;;;;;9.88;90.04;99243.69;5119188;27;47296;-75
2021/12/27 08:00:25;;;;;;;;;4.33;3.67;;;;;9.90;89.85;99253.06;5120803;27;45222;-74
2021/12/27 08:02:51;;;;;;;;;4.33;4.00;;;;;9.87;90.04;99255.34;5116877;27;45281;-74
2021/12/27 08:05:18;;;;;;;;;4.00;4.00;;;;;9.93;90.07;99267.75;5101615;27;45691;-74
2021/12/27 08:07:43;;;;;;;;;5.00;4.00;;;;;9.82;89.99;99254.09;5103697;27;46005;-74
2021/12/27 08:10:11;;;;;;;;;4.33;4.00;;;;;9.80;89.68;99252.69;5103569;27;45277;-74
2021/12/27 08:12:38;;;;;;;;;5.00;4.33;;;;;9.84;90.28;99249.41;5103954;27;45376;-75
2021/12/27 08:15:05;;;;;;;;;3.67;3.00;;;;;9.85;90.07;99258.19;5103497;27;45325;-73
2021/12/27 08:17:31;;;;;;;;;5.00;5.00;;;;;9.84;90.19;99259.19;5101766;27;47623;-74
2021/12/27 08:19:56;;;;;;;;;4.67;3.33;;;;;9.76;90.04;99251.47;5103591;27;45266;-73
2021/12/27 08:22:22;;;;;;;;;3.00;3.00;;;;;9.75;90.20;99249.84;5102251;27;45646;-74
2021/12/27 08:24:47;;;;;;;;;3.67;3.33;;;;;9.77;90.31;99253.91;5102904;27;45326;-74
2021/12/27 08:27:13;;;;;;;;;3.67;3.67;;;;;9.80;90.40;99255.34;5103488;27;45899;-74
2021/12/27 08:29:38;;;;;;;;;2.00;2.00;;;;;9.69;90.03;99241.69;5103326;27;45443;-75
2021/12/27 08:32:04;;;;;;;;;3.00;3.00;;;;;9.77;90.31;99242.47;5103452;27;45796;-74
2021/12/27 08:34:31;;;;;;;;;2.33;2.33;;;;;9.77;90.18;99245.97;5101814;27;46034;-75
2021/12/27 08:36:57;;;;;;;;;4.00;2.00;;;;;9.79;90.43;99251.84;5105801;27;46179;-76
2021/12/27 08:39:23;;;;;;;;;5.00;4.00;;;;;9.81;90.65;99252.47;5123626;27;45225;-74
2021/12/27 08:41:49;;;;;;;;;2.00;2.00;;;;;9.76;90.27;99235.56;5123947;27;45315;-74
2021/12/27 08:44:15;;;;;;;;;3.00;3.00;;;;;9.83;90.18;99241.66;5123277;27;45247;-75
2021/12/27 08:49:06;;;;;;;;;6.33;4.00;;;;;9.86;90.08;99233.28;5099787;27;72955;-75
2021/12/27 08:53:57;;;;;;;;;3.67;3.67;;;;;9.79;89.98;99222.66;5097483;27;74259;-73
2021/12/27 08:56:23;;;;;;;;;60.50;50.75;;;;;9.79;89.92;99227.97;5101504;27;46100;-74
2021/12/27 08:58:48;;;;;;;;;4.67;4.67;;;;;9.78;90.11;99217.56;5101376;27;45825;-74
2021/12/27 09:01:14;;;;;;;;;6.67;5.00;;;;;9.85;90.08;99232.47;5101621;27;45449;-74
2021/12/27 09:03:39;;;;;;;;;4.00;2.67;;;;;9.80;90.18;99220.84;5101355;27;45392;-73
2021/12/27 09:06:05;;;;;;;;;3.67;3.00;;;;;9.88;89.99;99228.59;5112745;27;47021;-73
2021/12/27 09:08:31;;;;;;;;;5.00;5.00;;;;;9.90;90.17;99234.50;5104674;27;45504;-73
2021/12/27 09:10:58;;;;;;;;;3.67;3.00;;;;;9.92;89.98;99234.28;5087853;27;45545;-73
2021/12/27 09:13:29;;;;;;;;;3.00;3.00;;;;;9.92;90.05;99232.47;5088285;27;45543;-73
2021/12/27 09:15:56;;;;;;;;;3.67;3.67;;;;;9.87;90.01;99213.69;5095586;27;47619;-74
2021/12/27 09:18:21;;;;;;;;;3.00;3.00;;;;;9.99;90.13;99232.44;5087036;27;45404;-73
2021/12/27 09:20:47;;;;;;;;;6.00;5.33;;;;;9.98;89.96;99225.50;5089027;27;45510;-73
2021/12/27 09:23:12;;;;;;;;;6.00;5.33;;;;;10.02;89.77;99223.25;5083863;27;45555;-74
2021/12/27 09:25:38;;;;;;;;;5.00;5.00;;;;;10.02;89.93;99224.06;5097123;27;48314;-74
2021/12/27 09:28:04;;;;;;;;;5.67;5.00;;;;;10.00;89.97;99217.34;5094200;27;45384;-74
2021/12/27 09:30:29;;;;;;;;;6.33;6.00;;;;;10.06;89.94;99227.94;5080574;28;45314;-74
2021/12/27 09:32:54;;;;;;;;;5.67;5.67;;;;;10.06;89.69;99216.50;5079289;28;47154;-74
2021/12/27 09:35:20;;;;;;;;;5.00;5.00;;;;;10.10;89.90;99225.69;5096051;27;47530;-73
2021/12/27 09:37:45;;;;;;;;;4.00;3.67;;;;;10.00;89.70;99199.59;5102761;27;45458;-73
2021/12/27 09:40:12;;;;;;;;;4.67;4.33;;;;;10.02;89.71;99200.19;5121703;27;45199;-73
2021/12/27 09:42:38;;;;;;;;;6.33;5.00;;;;;10.06;89.86;99209.34;5122928;27;45466;-73
2021/12/27 09:45:06;;;;;;;;;6.00;4.00;;;;;10.13;89.72;99219.97;5122642;27;45891;-73
2021/12/27 09:47:32;;;;;;;;;4.00;4.00;;;;;10.17;89.78;99215.84;5122602;27;45337;-73
2021/12/27 09:49:58;;;;;;;;;4.67;4.67;;;;;10.14;89.69;99208.31;5122871;27;45265;-73
2021/12/27 09:52:24;;;;;;;;;3.67;3.67;;;;;10.18;88.97;99208.72;5122604;27;45268;-73
2021/12/27 09:54:49;;;;;;;;;4.67;3.00;;;;;10.07;89.59;99194.25;5121058;27;48123;-74
2021/12/27 09:57:15;;;;;;;;;2.67;2.67;;;;;10.20;89.80;99201.34;5091071;27;45483;-73
2021/12/27 09:59:40;;;;;;;;;8.00;6.00;;;;;10.17;89.73;99186.66;5099136;27;45326;-73
2021/12/27 10:02:06;;;;;;;;;4.00;4.00;;;;;10.23;89.70;99193.78;5080661;28;45531;-73
2021/12/27 10:04:32;;;;;;;;;4.00;3.00;;;;;10.25;89.16;99192.75;5081085;27;45259;-74
2021/12/27 10:06:57;;;;;;;;;3.33;3.33;;;;;10.19;89.70;99174.00;5080868;27;45270;-73
2021/12/27 10:09:23;;;;;;;;;4.00;3.33;;;;;10.34;89.28;99180.88;5097216;27;45456;-73
2021/12/27 10:11:49;;;;;;;;;5.33;5.00;;;;;10.38;89.64;99179.41;5080985;27;45354;-73
2021/12/27 10:14:24;;;;;;;;;2.33;2.33;;;;;10.42;89.48;99183.28;5085336;27;46373;-73
2021/12/27 10:16:54;;;;;;;;;5.00;4.00;;;;;10.45;89.40;99174.91;5101058;27;45393;-74
2021/12/27 10:19:22;;;;;;;;;3.67;3.67;;;;;10.41;89.36;99170.22;5101776;27;45306;-74
2021/12/27 10:21:49;;;;;;;;;2.33;2.33;;;;;10.36;89.02;99171.66;5100133;27;47514;-73
2021/12/27 10:24:29;;;;;;;;;4.00;4.00;;;;;10.42;89.29;99183.28;5100727;27;46173;-74
2021/12/27 10:26:57;;;;;;;;;3.33;3.33;;;;;10.28;89.14;99155.97;5100737;27;45344;-73
2021/12/27 10:29:28;;;;;;;;;5.00;3.33;;;;;10.37;88.94;99175.16;5100379;27;45395;-73
2021/12/27 10:32:04;;;;;;;;;4.00;3.00;;;;;10.37;88.90;99175.16;5099623;27;46227;-73
2021/12/27 10:34:37;;;;;;;;;2.33;2.33;;;;;10.37;89.19;99180.44;5098616;27;45499;-73
2021/12/27 10:37:12;;;;;;;;;4.33;4.33;;;;;10.34;89.30;99178.22;5091135;27;45304;-75
2021/12/27 10:39:54;;;;;;;;;6.00;4.33;;;;;10.35;89.20;99180.66;5120672;27;45233;-73
2021/12/27 10:42:27;;;;;;;;;4.00;3.33;;;;;10.32;89.35;99178.44;5091661;27;45561;-75
2021/12/27 10:44:56;;;;;;;;;3.33;3.33;;;;;10.31;89.76;99176.81;5084426;27;45592;-75
2021/12/27 10:47:26;;;;;;;;;3.67;3.67;;;;;10.29;90.56;99175.38;5097963;27;45466;-74
2021/12/27 10:49:52;;;;;;;;;5.33;5.33;;;;;10.28;89.71;99176.41;5091424;27;45394;-75
2021/12/27 10:52:18;;;;;;;;;5.33;3.67;;;;;10.21;89.90;99163.16;5091065;27;45512;-74
2021/12/27 10:54:43;;;;;;;;;5.00;5.00;;;;;10.23;89.93;99175.19;5098991;27;47659;-73
2021/12/27 10:57:09;;;;;;;;;5.00;5.00;;;;;10.24;89.73;99176.03;5099635;27;45337;-73
2021/12/27 10:59:35;;;;;;;;;4.33;4.33;;;;;10.25;89.81;99168.84;5099785;27;45355;-73
2021/12/27 11:02:13;;;;;;;;;3.00;3.00;;;;;10.23;89.81;99155.78;5100758;27;45403;-73
2021/12/27 11:04:38;;;;;;;;;4.00;4.00;;;;;10.34;89.81;99172.91;5100723;27;45262;-74
2021/12/27 11:07:05;;;;;;;;;6.33;5.33;;;;;10.34;89.79;99172.91;5099338;27;45648;-74
2021/12/27 11:09:32;;;;;;;;;3.33;3.33;;;;;10.28;89.71;99168.44;5101109;27;45226;-73
2021/12/27 11:11:59;;;;;;;;;3.67;2.67;;;;;10.33;89.37;99173.94;5100851;27;45336;-73
2021/12/27 11:14:24;;;;;;;;;3.67;3.67;;;;;10.30;89.91;99171.72;5099118;27;47313;-74
2021/12/27 11:16:50;;;;;;;;;3.00;3.00;;;;;10.26;89.62;99168.66;5099050;27;45336;-74
2021/12/27 11:19:15;;;;;;;;;3.00;3.00;;;;;10.20;89.79;99166.81;5099642;27;45332;-73
2021/12/27 11:21:41;;;;;;;;;4.33;4.00;;;;;10.26;89.78;99178.47;5092664;27;45431;-74
2021/12/27 11:24:08;;;;;;;;;2.33;2.33;;;;;10.23;89.97;99174.38;5088962;27;45388;-75
2021/12/27 11:26:36;;;;;;;;;3.00;3.00;;;;;10.26;89.97;99181.91;5080343;27;45295;-73
2021/12/27 11:29:17;;;;;;;;;3.67;3.00;;;;;10.19;90.04;99174.00;5080267;27;45428;-74
2021/12/27 11:31:48;;;;;;;;;4.33;2.00;;;;;10.26;89.93;99170.50;5078586;28;46318;-74
2021/12/27 11:34:15;;;;;;;;;3.00;3.00;;;;;10.25;90.15;99168.84;5078505;28;47108;-74
2021/12/27 11:36:46;;;;;;;;;3.33;3.33;;;;;10.24;90.17;99176.03;5099649;27;45378;-73
2021/12/27 11:39:27;;;;;;;;;3.33;3.33;;;;;10.27;90.85;99178.25;5119639;27;45386;-74
2021/12/27 11:42:05;;;;;;;;;3.00;3.00;;;;;10.30;90.76;99177.81;5115825;27;45208;-74